createdAt,value
2018-10-18T00:01:11.721Z,11.42
2018-10-18T00:03:47.630Z,11.51
2018-10-18T00:06:23.344Z,11.57
2018-10-18T00:08:59.353Z,11.47
2018-10-18T00:11:35.188Z,11.44
2018-10-18T00:14:10.998Z,11.59
2018-10-18T00:16:47.136Z,11.43
2018-10-18T00:19:22.881Z,11.32
2018-10-18T00:21:58.766Z,11.45
2018-10-18T00:24:34.867Z,11.52
2018-10-18T00:27:10.743Z,11.68
2018-10-18T00:29:46.640Z,11.58
2018-10-18T00:32:22.603Z,11.67
2018-10-18T00:34:58.452Z,11.60
2018-10-18T00:37:34.450Z,11.57
2018-10-18T00:40:11.650Z,11.71
2018-10-18T00:42:47.503Z,11.49
2018-10-18T00:45:23.296Z,11.39
2018-10-18T00:47:59.506Z,11.48
2018-10-18T00:50:35.568Z,11.59
2018-10-18T00:53:11.369Z,11.51
2018-10-18T00:55:47.362Z,11.56
2018-10-18T00:58:23.128Z,11.50
2018-10-18T01:00:58.850Z,11.49
2018-10-18T01:03:34.476Z,11.55
2018-10-18T01:06:10.253Z,11.47
2018-10-18T01:08:46.244Z,11.37
2018-10-18T01:11:22.064Z,11.25
2018-10-18T01:13:57.873Z,11.23
2018-10-18T01:16:33.876Z,11.48
2018-10-18T01:19:09.727Z,11.46
2018-10-18T01:21:45.585Z,11.23
2018-10-18T01:24:21.356Z,11.06
2018-10-18T01:26:57.324Z,11.13
2018-10-18T01:29:33.185Z,11.16
2018-10-18T01:32:09.122Z,11.11
2018-10-18T01:34:44.948Z,10.90
2018-10-18T01:37:20.964Z,10.82
2018-10-18T01:39:56.782Z,10.63
2018-10-18T01:42:33.039Z,10.64
2018-10-18T01:45:08.980Z,10.69
2018-10-18T01:47:44.789Z,10.56
2018-10-18T01:50:21.134Z,10.44
2018-10-18T01:52:57.109Z,10.36
2018-10-18T01:55:33.006Z,10.34
2018-10-18T01:58:08.988Z,10.28
2018-10-18T02:00:44.975Z,10.29
2018-10-18T02:03:20.763Z,10.38
2018-10-18T02:05:56.624Z,10.26
2018-10-18T02:08:32.586Z,9.96
2018-10-18T02:12:32.482Z,10.14
2018-10-18T02:15:10.573Z,10.07
2018-10-18T02:17:46.501Z,10.11
2018-10-18T02:20:22.446Z,10.27
2018-10-18T02:22:58.200Z,10.22
2018-10-18T02:25:34.056Z,10.03
2018-10-18T02:28:09.856Z,9.63
2018-10-18T02:30:45.862Z,9.73
2018-10-18T02:33:21.686Z,9.77
2018-10-18T02:35:57.478Z,9.86
2018-10-18T02:38:33.295Z,9.74
2018-10-18T02:41:09.066Z,9.42
2018-10-18T02:43:45.016Z,9.11
2018-10-18T02:46:21.230Z,8.91
2018-10-18T02:48:56.990Z,8.60
2018-10-18T02:51:32.918Z,8.50
2018-10-18T02:54:08.718Z,8.58
2018-10-18T02:56:44.597Z,8.72
2018-10-18T02:59:20.606Z,8.85
2018-10-18T03:01:56.554Z,9.15
2018-10-18T03:04:32.784Z,9.31
2018-10-18T03:07:08.897Z,9.27
2018-10-18T03:09:44.734Z,9.32
2018-10-18T03:12:20.743Z,9.31
2018-10-18T03:14:56.621Z,9.07
2018-10-18T03:17:32.423Z,9.21
2018-10-18T03:20:09.013Z,8.97
2018-10-18T03:22:44.846Z,8.51
2018-10-18T03:25:20.601Z,8.50
2018-10-18T03:27:56.560Z,8.29
2018-10-18T03:30:33.763Z,8.13
2018-10-18T03:33:09.726Z,8.53
2018-10-18T03:35:45.652Z,8.66
2018-10-18T03:38:21.546Z,8.60
2018-10-18T03:40:57.467Z,8.45
2018-10-18T03:43:33.386Z,7.97
2018-10-18T03:46:09.220Z,7.80
2018-10-18T03:48:45.115Z,8.13
2018-10-18T03:51:20.913Z,8.05
2018-10-18T03:53:56.925Z,8.02
2018-10-18T03:56:33.081Z,7.40
2018-10-18T03:59:09.108Z,7.10
2018-10-18T04:01:49.202Z,7.07
2018-10-18T04:04:29.484Z,7.16
2018-10-18T04:07:05.580Z,7.08
2018-10-18T04:09:41.392Z,7.13
2018-10-18T04:12:17.219Z,7.38
2018-10-18T04:14:53.238Z,7.42
2018-10-18T04:17:29.136Z,7.76
2018-10-18T04:20:05.888Z,8.05
2018-10-18T04:22:41.638Z,8.06
2018-10-18T04:25:17.494Z,8.02
2018-10-18T04:27:53.564Z,8.19
2018-10-18T04:30:29.646Z,8.20
2018-10-18T04:33:06.266Z,7.93
2018-10-18T04:35:42.299Z,7.69
2018-10-18T04:38:20.879Z,7.58
2018-10-18T04:40:57.663Z,7.35
2018-10-18T04:43:33.363Z,7.26
2018-10-18T04:46:09.302Z,7.53
2018-10-18T04:48:45.286Z,7.71
2018-10-18T04:51:21.964Z,7.74
2018-10-18T04:53:57.917Z,7.77
2018-10-18T04:56:33.792Z,7.69
2018-10-18T04:59:09.876Z,7.36
2018-10-18T05:01:46.010Z,7.21
2018-10-18T05:04:22.143Z,7.21
2018-10-18T05:06:58.457Z,7.10
2018-10-18T05:09:34.500Z,7.21
2018-10-18T05:12:10.564Z,7.53
2018-10-18T05:14:46.352Z,7.43
2018-10-18T05:17:26.681Z,7.59
2018-10-18T05:20:02.381Z,7.67
2018-10-18T05:22:38.390Z,7.58
2018-10-18T05:25:14.310Z,7.40
2018-10-18T05:27:50.370Z,7.49
2018-10-18T05:30:26.230Z,7.53
2018-10-18T05:33:02.272Z,7.12
2018-10-18T05:35:38.201Z,6.84
2018-10-18T05:38:14.533Z,7.16
2018-10-18T05:40:50.227Z,7.36
2018-10-18T05:43:26.086Z,7.60
2018-10-18T05:46:01.960Z,8.13
2018-10-18T05:48:37.868Z,8.75
2018-10-18T05:51:13.631Z,8.83
2018-10-18T05:53:49.714Z,8.96
2018-10-18T05:56:25.782Z,9.16
2018-10-18T05:59:01.646Z,9.35
2018-10-18T06:01:37.501Z,9.18
2018-10-18T06:04:13.400Z,9.48
2018-10-18T06:06:49.275Z,9.28
2018-10-18T06:09:31.065Z,9.30
2018-10-18T06:12:07.047Z,9.42
2018-10-18T06:14:43.075Z,9.76
2018-10-18T06:17:19.069Z,9.82
2018-10-18T06:19:54.982Z,10.07
2018-10-18T06:22:31.052Z,10.43
2018-10-18T06:25:07.986Z,10.77
2018-10-18T06:27:44.173Z,11.12
2018-10-18T06:30:20.092Z,11.40
2018-10-18T06:32:55.979Z,11.71
2018-10-18T06:35:32.057Z,12.12
2018-10-18T06:38:08.069Z,12.43
2018-10-18T06:40:44.024Z,12.57
2018-10-18T06:43:19.885Z,12.81
2018-10-18T06:45:56.152Z,12.76
2018-10-18T06:48:33.263Z,13.03
2018-10-18T06:51:09.662Z,13.36
2018-10-18T06:53:45.636Z,13.52
2018-10-18T06:56:21.584Z,13.89
2018-10-18T06:58:57.505Z,13.87
2018-10-18T07:01:33.630Z,13.84
2018-10-18T07:04:09.536Z,14.07
2018-10-18T07:06:45.720Z,14.16
2018-10-18T07:09:21.600Z,14.28
2018-10-18T07:11:57.641Z,14.24
2018-10-18T07:14:33.617Z,14.37
2018-10-18T07:17:09.513Z,14.19
2018-10-18T07:19:45.385Z,14.36
2018-10-18T07:22:21.394Z,14.62
2018-10-18T07:24:57.350Z,14.74
2018-10-18T07:27:33.278Z,14.99
2018-10-18T07:30:10.715Z,14.74
2018-10-18T07:32:46.823Z,14.92
2018-10-18T07:35:22.841Z,14.84
2018-10-18T07:38:00.034Z,14.79
2018-10-18T07:40:35.854Z,14.87
2018-10-18T07:43:11.852Z,15.12
2018-10-18T07:45:47.881Z,15.30
2018-10-18T07:48:23.950Z,15.61
2018-10-18T07:50:59.773Z,15.93
2018-10-18T07:53:35.716Z,16.04
2018-10-18T07:56:11.764Z,16.38
2018-10-18T07:58:47.684Z,16.40
2018-10-18T08:01:18.572Z,16.74
2018-10-18T08:03:49.519Z,16.77
2018-10-18T08:06:20.416Z,16.75
2018-10-18T08:08:51.356Z,16.98
2018-10-18T08:11:22.309Z,17.03
2018-10-18T08:13:53.348Z,17.25
2018-10-18T08:16:24.256Z,17.16
2018-10-18T08:18:56.207Z,17.09
2018-10-18T08:21:27.406Z,17.09
2018-10-18T08:23:59.737Z,16.91
2018-10-18T08:26:31.624Z,16.94
2018-10-18T08:29:02.983Z,16.96
2018-10-18T08:31:34.032Z,17.38
2018-10-18T08:34:05.954Z,17.64
2018-10-18T08:36:37.906Z,17.89
2018-10-18T08:39:10.841Z,18.08
2018-10-18T08:41:41.981Z,18.29
2018-10-18T08:44:13.363Z,18.16
2018-10-18T08:46:44.572Z,18.04
2018-10-18T08:49:18.342Z,18.38
2018-10-18T08:51:51.569Z,18.71
2018-10-18T08:54:22.386Z,19.16
2018-10-18T08:56:53.555Z,19.19
2018-10-18T08:59:25.621Z,19.11
2018-10-18T09:01:57.746Z,19.01
2018-10-18T09:04:28.737Z,19.10
2018-10-18T09:06:59.952Z,19.29
2018-10-18T09:09:31.674Z,19.16
2018-10-18T09:12:09.626Z,19.27
2018-10-18T09:14:40.893Z,19.19
2018-10-18T09:17:11.775Z,19.32
2018-10-18T09:19:43.631Z,19.64
2018-10-18T09:22:14.985Z,19.74
2018-10-18T09:24:46.399Z,19.85
2018-10-18T09:27:18.549Z,20.05
2018-10-18T09:30:02.000Z,20.11
2018-10-18T09:32:33.480Z,20.15
2018-10-18T09:35:05.159Z,20.32
2018-10-18T09:37:36.185Z,20.55
2018-10-18T09:40:08.794Z,20.84
2018-10-18T09:42:39.959Z,20.81
2018-10-18T09:45:12.372Z,20.73
2018-10-18T09:47:43.265Z,20.79
2018-10-18T09:50:14.750Z,20.97
2018-10-18T09:52:45.635Z,21.23
2018-10-18T09:55:19.565Z,21.29
2018-10-18T09:57:50.861Z,21.41
2018-10-18T10:00:38.879Z,21.29
2018-10-18T10:03:14.929Z,21.19
2018-10-18T10:05:48.696Z,21.08
2018-10-18T10:08:22.862Z,21.46
2018-10-18T10:10:57.536Z,21.90
2018-10-18T10:13:28.680Z,22.06
2018-10-18T10:16:00.327Z,22.14
2018-10-18T10:18:31.225Z,22.33
2018-10-18T10:21:02.164Z,22.47
2018-10-18T10:23:33.070Z,22.40
2018-10-18T10:26:04.348Z,22.19
2018-10-18T10:28:35.219Z,22.29
2018-10-18T10:31:07.130Z,22.69
2018-10-18T10:33:38.585Z,22.52
2018-10-18T10:36:09.603Z,22.54
2018-10-18T10:38:40.574Z,22.71
2018-10-18T10:41:18.274Z,22.78
2018-10-18T10:43:49.363Z,22.88
2018-10-18T10:46:20.376Z,23.00
2018-10-18T10:48:51.580Z,23.39
2018-10-18T10:51:22.643Z,23.15
2018-10-18T10:53:56.477Z,23.20
2018-10-18T10:56:27.987Z,23.04
2018-10-18T10:59:00.255Z,22.49
2018-10-18T11:01:31.674Z,22.49
2018-10-18T11:04:03.347Z,22.43
2018-10-18T11:06:36.260Z,22.80
2018-10-18T11:09:10.834Z,23.08
2018-10-18T11:11:43.180Z,23.11
2018-10-18T11:14:14.184Z,23.15
2018-10-18T11:16:45.728Z,23.61
2018-10-18T11:19:16.602Z,22.83
2018-10-18T11:21:47.581Z,22.61
2018-10-18T11:24:18.754Z,22.59
2018-10-18T11:26:49.840Z,23.12
2018-10-18T11:29:20.868Z,23.39
2018-10-18T11:31:52.146Z,23.15
2018-10-18T11:34:23.977Z,23.53
2018-10-18T11:36:55.351Z,23.57
2018-10-18T11:39:26.246Z,23.78
2018-10-18T11:41:57.195Z,23.40
2018-10-18T11:44:33.173Z,23.90
2018-10-18T11:47:04.116Z,23.88
2018-10-18T11:49:35.009Z,23.78
2018-10-18T11:52:17.545Z,23.50
2018-10-18T11:54:48.471Z,23.34
2018-10-18T11:57:19.455Z,23.42
2018-10-18T11:59:50.333Z,23.34
2018-10-18T12:02:21.289Z,23.15
2018-10-18T12:04:52.787Z,23.43
2018-10-18T12:07:23.792Z,23.31
2018-10-18T12:09:55.679Z,23.54
2018-10-18T12:12:27.719Z,23.32
2018-10-18T12:14:58.854Z,23.36
2018-10-18T12:17:30.753Z,23.45
2018-10-18T12:20:01.688Z,23.42
2018-10-18T12:22:32.961Z,23.63
2018-10-18T12:25:03.868Z,24.03
2018-10-18T12:27:35.347Z,24.04
2018-10-18T12:30:07.803Z,24.15
2018-10-18T12:32:41.458Z,24.19
2018-10-18T12:35:15.694Z,24.07
2018-10-18T12:37:48.339Z,24.35
2018-10-18T12:40:22.990Z,24.57
2018-10-18T12:42:54.208Z,24.49
2018-10-18T12:45:25.102Z,24.33
2018-10-18T12:47:56.073Z,24.21
2018-10-18T12:50:26.956Z,24.40
2018-10-18T12:52:57.989Z,24.46
2018-10-18T12:55:28.876Z,24.19
2018-10-18T12:57:59.865Z,24.23
2018-10-18T13:00:30.767Z,23.99
2018-10-18T13:03:01.691Z,24.26
2018-10-18T13:05:32.625Z,24.60
2018-10-18T13:09:28.239Z,24.76
2018-10-18T13:11:59.494Z,25.29
2018-10-18T13:14:31.167Z,25.10
2018-10-18T13:17:02.053Z,24.95
2018-10-18T13:19:33.011Z,24.36
2018-10-18T13:22:03.925Z,24.26
2018-10-18T13:24:34.873Z,24.19
2018-10-18T13:27:05.933Z,23.95
2018-10-18T13:29:36.948Z,23.66
2018-10-18T13:32:07.936Z,22.99
2018-10-18T13:34:40.036Z,22.64
2018-10-18T13:37:10.933Z,22.03
2018-10-18T13:39:41.898Z,21.63
2018-10-18T13:42:12.929Z,21.42
2018-10-18T13:44:43.992Z,21.20
2018-10-18T13:47:14.879Z,21.20
2018-10-18T13:49:45.807Z,21.01
2018-10-18T13:52:16.703Z,20.79
2018-10-18T13:54:47.905Z,20.87
2018-10-18T13:57:19.094Z,20.84
2018-10-18T14:00:00.956Z,20.73
2018-10-18T14:02:32.068Z,20.61
2018-10-18T14:05:03.051Z,20.48
2018-10-18T14:07:34.137Z,20.44
2018-10-18T14:10:05.195Z,20.50
2018-10-18T14:12:36.113Z,20.71
2018-10-18T14:15:07.780Z,20.96
2018-10-18T14:17:39.164Z,21.07
2018-10-18T14:20:10.605Z,21.65
2018-10-18T14:22:41.954Z,22.23
2018-10-18T14:25:12.924Z,22.62
2018-10-18T14:27:43.855Z,22.28
2018-10-18T14:30:14.956Z,22.21
2018-10-18T14:32:46.000Z,21.81
2018-10-18T14:35:17.463Z,21.46
2018-10-18T14:37:48.402Z,21.08
2018-10-18T14:40:19.332Z,20.85
2018-10-18T14:42:50.221Z,20.46
2018-10-18T14:45:21.327Z,20.22
2018-10-18T14:47:52.296Z,19.91
2018-10-18T14:50:23.556Z,19.92
2018-10-18T14:52:54.573Z,19.77
2018-10-18T14:55:25.812Z,19.73
2018-10-18T14:57:57.098Z,19.63
2018-10-18T15:00:28.112Z,19.44
2018-10-18T15:02:59.310Z,19.22
2018-10-18T15:05:30.258Z,19.03
2018-10-18T15:08:01.216Z,18.77
2018-10-18T15:10:32.329Z,18.53
2018-10-18T15:13:03.229Z,18.56
2018-10-18T15:15:34.230Z,18.44
2018-10-18T15:18:05.288Z,18.26
2018-10-18T15:20:38.842Z,18.06
2018-10-18T15:23:09.814Z,17.88
2018-10-18T15:25:41.231Z,17.73
2018-10-18T15:28:12.180Z,17.54
2018-10-18T15:30:43.193Z,17.41
2018-10-18T15:33:14.158Z,17.28
2018-10-18T15:35:45.369Z,17.07
2018-10-18T15:38:16.483Z,16.91
2018-10-18T15:40:47.837Z,16.82
2018-10-18T15:43:18.726Z,16.85
2018-10-18T15:45:49.783Z,16.76
2018-10-18T15:48:20.672Z,16.67
2018-10-18T15:50:51.636Z,16.56
2018-10-18T15:53:22.535Z,16.37
2018-10-18T15:55:53.583Z,16.44
2018-10-18T15:58:24.464Z,16.31
2018-10-18T16:00:55.469Z,16.27
2018-10-18T16:03:26.370Z,16.03
2018-10-18T16:05:57.978Z,15.95
2018-10-18T16:08:28.882Z,15.94
2018-10-18T16:10:59.901Z,15.87
2018-10-18T16:13:31.157Z,15.90
2018-10-18T16:16:02.210Z,15.87
2018-10-18T16:18:35.909Z,15.79
2018-10-18T16:21:06.989Z,15.76
2018-10-18T16:23:38.112Z,15.68
2018-10-18T16:26:09.226Z,15.62
2018-10-18T16:28:40.218Z,15.62
2018-10-18T16:31:11.269Z,15.58
2018-10-18T16:33:42.228Z,15.58
2018-10-18T16:36:13.412Z,15.60
2018-10-18T16:38:44.386Z,15.57
2018-10-18T16:41:15.547Z,15.56
2018-10-18T16:43:46.462Z,15.63
2018-10-18T16:46:17.559Z,15.62
2018-10-18T16:48:48.835Z,15.61
2018-10-18T16:51:19.806Z,15.56
2018-10-18T16:53:50.858Z,15.59
2018-10-18T16:56:22.580Z,15.57
2018-10-18T16:58:53.697Z,15.50
2018-10-18T17:01:25.170Z,15.57
2018-10-18T17:03:56.072Z,15.54
2018-10-18T17:06:27.102Z,15.46
2018-10-18T17:08:58.260Z,15.40
2018-10-18T17:11:29.411Z,15.35
2018-10-18T17:14:00.515Z,15.32
2018-10-18T17:16:31.784Z,15.33
2018-10-18T17:19:02.660Z,15.44
2018-10-18T17:21:34.596Z,15.46
2018-10-18T17:24:05.623Z,15.30
2018-10-18T17:26:36.967Z,15.50
2018-10-18T17:29:08.284Z,15.46
2018-10-18T17:31:39.355Z,15.41
2018-10-18T17:34:10.341Z,15.32
2018-10-18T17:36:41.430Z,15.39
2018-10-18T17:39:12.515Z,15.29
2018-10-18T17:41:43.461Z,15.17
2018-10-18T17:44:14.504Z,15.10
2018-10-18T17:46:45.691Z,15.08
2018-10-18T17:49:16.595Z,15.15
2018-10-18T17:51:47.545Z,15.04
2018-10-18T17:55:21.137Z,15.04
2018-10-18T17:57:52.279Z,15.07
2018-10-18T18:00:26.276Z,14.97
2018-10-18T18:02:57.315Z,14.86
2018-10-18T18:05:28.255Z,14.84
2018-10-18T18:07:59.331Z,14.62
2018-10-18T18:10:30.620Z,14.66
2018-10-18T18:13:01.894Z,14.59
2018-10-18T18:15:33.222Z,14.52
2018-10-18T18:18:04.615Z,14.47
2018-10-18T18:20:35.977Z,14.28
2018-10-18T18:23:07.660Z,14.27
2018-10-18T18:25:47.931Z,14.17
2018-10-18T18:28:24.433Z,14.10
2018-10-18T18:30:56.922Z,14.07
2018-10-18T18:33:29.582Z,14.07
2018-10-18T18:36:01.444Z,13.96
2018-10-18T18:38:38.604Z,13.78
2018-10-18T18:41:10.280Z,13.71
2018-10-18T18:43:44.709Z,13.68
2018-10-18T18:46:21.991Z,13.69
2018-10-18T18:48:56.426Z,13.57
2018-10-18T18:51:27.948Z,13.31
2018-10-18T18:53:59.445Z,13.06
2018-10-18T18:56:30.606Z,13.25
2018-10-18T18:59:01.829Z,13.23
2018-10-18T19:01:32.685Z,13.05
2018-10-18T19:04:03.645Z,13.04
2018-10-18T19:06:34.570Z,12.91
2018-10-18T19:09:09.706Z,12.88
2018-10-18T19:11:41.513Z,12.70
2018-10-18T19:14:12.436Z,12.62
2018-10-18T19:17:06.052Z,12.64
2018-10-18T19:19:38.951Z,12.62
2018-10-18T19:22:09.918Z,12.59
2018-10-18T19:24:41.805Z,12.59
2018-10-18T19:27:13.784Z,12.64
2018-10-18T19:29:44.735Z,12.52
2018-10-18T19:32:17.637Z,12.21
2018-10-18T19:34:48.816Z,11.60
2018-10-18T19:37:20.016Z,11.44
2018-10-18T19:40:00.911Z,11.52
2018-10-18T19:42:32.808Z,11.33
2018-10-18T19:45:09.784Z,11.18
2018-10-18T19:47:41.060Z,10.94
2018-10-18T19:50:12.021Z,10.98
2018-10-18T19:52:43.242Z,11.23
2018-10-18T19:55:14.311Z,11.34
2018-10-18T19:57:45.232Z,11.50
2018-10-18T20:00:21.536Z,11.57
2018-10-18T20:02:57.600Z,11.60
2018-10-18T20:05:33.576Z,11.48
2018-10-18T20:08:09.606Z,11.43
2018-10-18T20:10:45.598Z,11.37
2018-10-18T20:13:21.363Z,11.22
2018-10-18T20:15:57.102Z,10.52
2018-10-18T20:18:33.014Z,10.07
2018-10-18T20:21:09.521Z,10.11
2018-10-18T20:23:45.472Z,10.17
2018-10-18T20:26:21.622Z,10.12
2018-10-18T20:28:57.336Z,9.81
2018-10-18T20:31:33.429Z,9.93
2018-10-18T20:35:33.328Z,10.06
2018-10-18T20:38:11.882Z,10.15
2018-10-18T20:40:47.725Z,10.40
2018-10-18T20:43:23.686Z,10.47
2018-10-18T20:46:00.547Z,10.53
2018-10-18T20:48:36.767Z,10.62
2018-10-18T20:51:12.758Z,10.64
2018-10-18T20:53:48.830Z,10.66
2018-10-18T20:56:24.718Z,10.69
2018-10-18T20:59:00.526Z,10.32
2018-10-18T21:01:36.302Z,9.73
2018-10-18T21:04:12.313Z,9.16
2018-10-18T21:06:48.235Z,9.30
2018-10-18T21:09:24.128Z,9.02
2018-10-18T21:12:00.044Z,9.01
2018-10-18T21:14:36.191Z,9.03
2018-10-18T21:17:12.193Z,8.98
2018-10-18T21:19:48.353Z,8.96
2018-10-18T21:22:24.359Z,8.99
2018-10-18T21:25:00.257Z,9.07
2018-10-18T21:27:36.131Z,8.96
2018-10-18T21:30:12.320Z,8.97
2018-10-18T21:32:48.494Z,9.09
2018-10-18T21:35:24.498Z,9.33
2018-10-18T21:38:00.642Z,9.11
2018-10-18T21:40:36.467Z,8.87
2018-10-18T21:43:12.286Z,8.18
2018-10-18T21:45:48.292Z,8.13
2018-10-18T21:48:24.289Z,8.04
2018-10-18T21:51:00.192Z,8.00
2018-10-18T21:53:36.271Z,8.01
2018-10-18T21:56:12.235Z,7.91
2018-10-18T21:58:48.088Z,7.91
2018-10-18T22:01:24.109Z,8.14
2018-10-18T22:04:00.000Z,8.26
2018-10-18T22:06:36.240Z,8.42
2018-10-18T22:09:12.091Z,8.47
2018-10-18T22:11:48.107Z,8.83
2018-10-18T22:14:23.984Z,8.93
2018-10-18T22:17:00.395Z,9.00
2018-10-18T22:19:36.178Z,8.85
2018-10-18T22:22:12.069Z,8.58
2018-10-18T22:24:47.980Z,8.05
2018-10-18T22:27:23.950Z,8.12
2018-10-18T22:29:59.761Z,8.02
2018-10-18T22:32:35.630Z,8.22
2018-10-18T22:35:11.754Z,8.17
2018-10-18T22:37:47.807Z,7.88
2018-10-18T22:40:23.705Z,7.78
2018-10-18T22:42:59.929Z,7.84
2018-10-18T22:45:35.796Z,7.73
2018-10-18T22:48:11.656Z,7.41
2018-10-18T22:50:47.388Z,7.29
2018-10-18T22:53:23.220Z,7.22
2018-10-18T22:55:58.968Z,7.44
2018-10-18T22:58:34.885Z,7.41
2018-10-18T23:01:10.654Z,7.31
2018-10-18T23:03:46.554Z,7.46
2018-10-18T23:06:22.424Z,7.60
2018-10-18T23:08:58.345Z,7.62
2018-10-18T23:11:34.157Z,7.59
2018-10-18T23:14:10.820Z,7.74
2018-10-18T23:16:46.662Z,7.80
2018-10-18T23:19:22.608Z,7.91
2018-10-18T23:21:58.400Z,8.06
2018-10-18T23:24:35.549Z,8.15
2018-10-18T23:27:10.649Z,8.32
2018-10-18T23:29:46.662Z,8.26
2018-10-18T23:32:22.469Z,8.34
2018-10-18T23:34:58.371Z,8.29
2018-10-18T23:37:34.347Z,8.31
2018-10-18T23:40:10.238Z,8.29
2018-10-18T23:42:45.949Z,7.61
2018-10-18T23:45:22.804Z,6.92
2018-10-18T23:47:58.639Z,6.44
2018-10-18T23:50:34.481Z,6.15
2018-10-18T23:53:10.402Z,6.07
2018-10-18T23:55:46.505Z,6.26
2018-10-18T23:58:22.343Z,6.60
